sensor_id;sensor_type;location;lat;lon;timestamp;temperature;humidity
45983;DHT22;31711;47.158;7.346;2022-09-16T00:01:37;15.90;99.90
45983;DHT22;31711;47.158;7.346;2022-09-16T00:04:03;15.80;99.90
45983;DHT22;31711;47.158;7.346;2022-09-16T00:06:29;15.80;99.90
45983;DHT22;31711;47.158;7.346;2022-09-16T00:08:57;15.80;99.90
45983;DHT22;31711;47.158;7.346;2022-09-16T00:11:25;15.80;99.90
45983;DHT22;31711;47.158;7.346;2022-09-16T00:13:52;15.70;99.90
45983;DHT22;31711;47.158;7.346;2022-09-16T00:16:25;15.60;99.90
45983;DHT22;31711;47.158;7.346;2022-09-16T00:18:55;15.60;99.90
45983;DHT22;31711;47.158;7.346;2022-09-16T00:21:23;15.60;99.90
45983;DHT22;31711;47.158;7.346;2022-09-16T00:23:49;15.50;99.90
45983;DHT22;31711;47.158;7.346;2022-09-16T00:26:16;15.50;99.90
45983;DHT22;31711;47.158;7.346;2022-09-16T00:28:47;15.60;99.90
45983;DHT22;31711;47.158;7.346;2022-09-16T00:31:13;15.50;99.90
45983;DHT22;31711;47.158;7.346;2022-09-16T00:33:39;15.50;99.90
45983;DHT22;31711;47.158;7.346;2022-09-16T00:36:06;15.60;99.90
45983;DHT22;31711;47.158;7.346;2022-09-16T00:38:33;15.50;99.90
45983;DHT22;31711;47.158;7.346;2022-09-16T00:40:59;15.50;99.90
45983;DHT22;31711;47.158;7.346;2022-09-16T00:43:25;15.50;99.90
45983;DHT22;31711;47.158;7.346;2022-09-16T00:46:01;15.50;99.90
45983;DHT22;31711;47.158;7.346;2022-09-16T00:48:30;15.40;99.90
45983;DHT22;31711;47.158;7.346;2022-09-16T00:51:03;15.40;99.90
45983;DHT22;31711;47.158;7.346;2022-09-16T00:53:34;15.30;99.90
45983;DHT22;31711;47.158;7.346;2022-09-16T00:56:05;15.20;99.90
45983;DHT22;31711;47.158;7.346;2022-09-16T01:01:04;15.20;99.90
45983;DHT22;31711;47.158;7.346;2022-09-16T01:03:33;15.30;99.90
45983;DHT22;31711;47.158;7.346;2022-09-16T01:06:01;15.20;99.90
45983;DHT22;31711;47.158;7.346;2022-09-16T01:08:27;15.30;99.90
45983;DHT22;31711;47.158;7.346;2022-09-16T01:10:53;15.20;99.90
45983;DHT22;31711;47.158;7.346;2022-09-16T01:13:19;15.30;99.90
45983;DHT22;31711;47.158;7.346;2022-09-16T01:19:01;15.10;99.90
45983;DHT22;31711;47.158;7.346;2022-09-16T01:32:27;15.20;99.90
45983;DHT22;31711;47.158;7.346;2022-09-16T01:35:18;15.10;99.90
45983;DHT22;31711;47.158;7.346;2022-09-16T01:38:01;15.10;99.90
45983;DHT22;31711;47.158;7.346;2022-09-16T01:40:36;15.10;99.90
45983;DHT22;31711;47.158;7.346;2022-09-16T01:46:35;15.10;99.90
45983;DHT22;31711;47.158;7.346;2022-09-16T01:51:51;15.00;99.90
45983;DHT22;31711;47.158;7.346;2022-09-16T01:54:26;14.90;99.90
45983;DHT22;31711;47.158;7.346;2022-09-16T01:57:01;14.90;99.90
45983;DHT22;31711;47.158;7.346;2022-09-16T02:02:23;14.90;99.90
45983;DHT22;31711;47.158;7.346;2022-09-16T02:04:55;14.90;99.90
45983;DHT22;31711;47.158;7.346;2022-09-16T02:07:26;14.90;99.90
45983;DHT22;31711;47.158;7.346;2022-09-16T02:09:55;15.00;99.90
45983;DHT22;31711;47.158;7.346;2022-09-16T02:12:26;14.90;99.90
45983;DHT22;31711;47.158;7.346;2022-09-16T02:15:01;15.00;99.90
45983;DHT22;31711;47.158;7.346;2022-09-16T02:17:32;15.00;99.90
45983;DHT22;31711;47.158;7.346;2022-09-16T02:22:43;14.90;99.90
45983;DHT22;31711;47.158;7.346;2022-09-16T02:25:10;15.00;99.90
45983;DHT22;31711;47.158;7.346;2022-09-16T02:27:39;14.90;99.90
45983;DHT22;31711;47.158;7.346;2022-09-16T02:30:09;14.90;99.90
45983;DHT22;31711;47.158;7.346;2022-09-16T02:32:48;14.90;99.90
45983;DHT22;31711;47.158;7.346;2022-09-16T02:35:17;14.90;99.90
45983;DHT22;31711;47.158;7.346;2022-09-16T02:38:21;14.90;99.90
45983;DHT22;31711;47.158;7.346;2022-09-16T02:40:54;14.90;99.90
45983;DHT22;31711;47.158;7.346;2022-09-16T02:43:21;14.90;99.90
45983;DHT22;31711;47.158;7.346;2022-09-16T02:51:44;14.90;99.90
45983;DHT22;31711;47.158;7.346;2022-09-16T02:57:01;14.90;99.90
45983;DHT22;31711;47.158;7.346;2022-09-16T02:59:28;14.90;99.90
45983;DHT22;31711;47.158;7.346;2022-09-16T03:01:54;14.90;99.90
45983;DHT22;31711;47.158;7.346;2022-09-16T03:04:20;14.90;99.90
45983;DHT22;31711;47.158;7.346;2022-09-16T03:06:46;14.90;99.90
45983;DHT22;31711;47.158;7.346;2022-09-16T03:09:14;14.90;99.90
45983;DHT22;31711;47.158;7.346;2022-09-16T03:20:32;14.70;99.90
45983;DHT22;31711;47.158;7.346;2022-09-16T03:32:06;14.50;99.90
45983;DHT22;31711;47.158;7.346;2022-09-16T03:34:41;14.50;99.90
45983;DHT22;31711;47.158;7.346;2022-09-16T03:37:12;14.50;99.90
45983;DHT22;31711;47.158;7.346;2022-09-16T03:39:40;14.50;99.90
45983;DHT22;31711;47.158;7.346;2022-09-16T03:42:07;14.50;99.90
45983;DHT22;31711;47.158;7.346;2022-09-16T03:44:37;14.50;99.90
45983;DHT22;31711;47.158;7.346;2022-09-16T03:47:07;14.60;99.90
45983;DHT22;31711;47.158;7.346;2022-09-16T03:49:35;14.60;99.90
45983;DHT22;31711;47.158;7.346;2022-09-16T03:52:02;14.70;99.90
45983;DHT22;31711;47.158;7.346;2022-09-16T03:54:30;14.60;99.90
45983;DHT22;31711;47.158;7.346;2022-09-16T03:56:57;14.50;99.90
45983;DHT22;31711;47.158;7.346;2022-09-16T03:59:23;14.40;99.90
45983;DHT22;31711;47.158;7.346;2022-09-16T04:01:49;14.40;99.90
45983;DHT22;31711;47.158;7.346;2022-09-16T04:04:14;14.30;99.90
45983;DHT22;31711;47.158;7.346;2022-09-16T04:06:40;14.40;99.90
45983;DHT22;31711;47.158;7.346;2022-09-16T04:09:06;14.50;99.90
45983;DHT22;31711;47.158;7.346;2022-09-16T04:11:33;14.60;99.90
45983;DHT22;31711;47.158;7.346;2022-09-16T04:14:00;14.60;99.90
45983;DHT22;31711;47.158;7.346;2022-09-16T04:22:30;14.40;99.90
45983;DHT22;31711;47.158;7.346;2022-09-16T04:32:32;14.50;99.90
45983;DHT22;31711;47.158;7.346;2022-09-16T04:34:58;14.30;99.90
45983;DHT22;31711;47.158;7.346;2022-09-16T04:37:24;14.20;99.90
45983;DHT22;31711;47.158;7.346;2022-09-16T04:39:50;14.10;99.90
45983;DHT22;31711;47.158;7.346;2022-09-16T04:42:16;14.10;99.90
45983;DHT22;31711;47.158;7.346;2022-09-16T04:44:42;14.10;99.90
45983;DHT22;31711;47.158;7.346;2022-09-16T04:47:09;14.10;99.90
45983;DHT22;31711;47.158;7.346;2022-09-16T04:49:35;14.10;99.90
45983;DHT22;31711;47.158;7.346;2022-09-16T04:52:01;14.10;99.90
45983;DHT22;31711;47.158;7.346;2022-09-16T04:54:27;14.10;99.90
45983;DHT22;31711;47.158;7.346;2022-09-16T05:02:04;14.00;99.90
45983;DHT22;31711;47.158;7.346;2022-09-16T05:04:30;13.90;99.90
45983;DHT22;31711;47.158;7.346;2022-09-16T05:06:56;13.80;99.90
45983;DHT22;31711;47.158;7.346;2022-09-16T05:09:22;13.80;99.90
45983;DHT22;31711;47.158;7.346;2022-09-16T05:11:48;13.70;99.90
45983;DHT22;31711;47.158;7.346;2022-09-16T05:14:16;13.70;99.90
45983;DHT22;31711;47.158;7.346;2022-09-16T05:16:43;13.60;99.90
45983;DHT22;31711;47.158;7.346;2022-09-16T05:19:13;13.50;99.90
45983;DHT22;31711;47.158;7.346;2022-09-16T05:21:39;13.50;99.90
45983;DHT22;31711;47.158;7.346;2022-09-16T05:24:08;13.50;99.90
45983;DHT22;31711;47.158;7.346;2022-09-16T05:26:36;13.50;99.90
45983;DHT22;31711;47.158;7.346;2022-09-16T05:29:09;13.40;99.90
45983;DHT22;31711;47.158;7.346;2022-09-16T05:31:37;13.40;99.90
45983;DHT22;31711;47.158;7.346;2022-09-16T05:34:06;13.40;99.90
45983;DHT22;31711;47.158;7.346;2022-09-16T05:36:35;13.60;99.90
45983;DHT22;31711;47.158;7.346;2022-09-16T05:39:03;13.70;99.90
45983;DHT22;31711;47.158;7.346;2022-09-16T05:41:30;13.70;99.90
45983;DHT22;31711;47.158;7.346;2022-09-16T05:43:59;13.60;99.90
45983;DHT22;31711;47.158;7.346;2022-09-16T05:46:26;13.50;99.90
45983;DHT22;31711;47.158;7.346;2022-09-16T05:48:53;13.60;99.90
45983;DHT22;31711;47.158;7.346;2022-09-16T05:51:20;13.50;99.90
45983;DHT22;31711;47.158;7.346;2022-09-16T05:53:48;13.60;99.90
45983;DHT22;31711;47.158;7.346;2022-09-16T05:56:16;13.80;99.90
45983;DHT22;31711;47.158;7.346;2022-09-16T05:58:43;13.70;99.90
45983;DHT22;31711;47.158;7.346;2022-09-16T06:01:14;13.70;99.90
45983;DHT22;31711;47.158;7.346;2022-09-16T06:03:42;13.80;99.90
45983;DHT22;31711;47.158;7.346;2022-09-16T06:06:34;13.70;99.90
45983;DHT22;31711;47.158;7.346;2022-09-16T06:09:13;13.80;99.90
45983;DHT22;31711;47.158;7.346;2022-09-16T06:11:44;13.90;99.90
45983;DHT22;31711;47.158;7.346;2022-09-16T06:14:11;13.90;99.90
45983;DHT22;31711;47.158;7.346;2022-09-16T06:16:38;14.00;99.90
45983;DHT22;31711;47.158;7.346;2022-09-16T06:19:09;14.00;99.90
45983;DHT22;31711;47.158;7.346;2022-09-16T06:21:36;14.10;99.90
45983;DHT22;31711;47.158;7.346;2022-09-16T06:24:02;14.10;99.90
45983;DHT22;31711;47.158;7.346;2022-09-16T06:26:28;14.20;99.90
45983;DHT22;31711;47.158;7.346;2022-09-16T06:28:54;14.20;99.90
45983;DHT22;31711;47.158;7.346;2022-09-16T06:31:25;14.30;99.90
45983;DHT22;31711;47.158;7.346;2022-09-16T06:33:52;14.30;99.90
45983;DHT22;31711;47.158;7.346;2022-09-16T06:36:24;14.30;99.90
45983;DHT22;31711;47.158;7.346;2022-09-16T06:38:50;14.40;99.90
45983;DHT22;31711;47.158;7.346;2022-09-16T06:41:17;14.50;99.90
45983;DHT22;31711;47.158;7.346;2022-09-16T06:43:44;14.60;99.90
45983;DHT22;31711;47.158;7.346;2022-09-16T06:46:16;14.70;99.90
45983;DHT22;31711;47.158;7.346;2022-09-16T06:48:45;14.80;99.90
45983;DHT22;31711;47.158;7.346;2022-09-16T06:51:15;14.90;99.90
45983;DHT22;31711;47.158;7.346;2022-09-16T06:53:42;15.00;99.90
45983;DHT22;31711;47.158;7.346;2022-09-16T06:56:10;15.10;99.90
45983;DHT22;31711;47.158;7.346;2022-09-16T06:58:39;15.10;99.90
45983;DHT22;31711;47.158;7.346;2022-09-16T07:01:17;15.10;99.90
45983;DHT22;31711;47.158;7.346;2022-09-16T07:03:44;15.20;99.90
45983;DHT22;31711;47.158;7.346;2022-09-16T07:06:12;15.30;99.90
45983;DHT22;31711;47.158;7.346;2022-09-16T07:08:39;15.40;99.90
45983;DHT22;31711;47.158;7.346;2022-09-16T07:11:11;15.50;99.90
45983;DHT22;31711;47.158;7.346;2022-09-16T07:13:38;15.60;99.90
45983;DHT22;31711;47.158;7.346;2022-09-16T07:16:06;15.70;99.90
45983;DHT22;31711;47.158;7.346;2022-09-16T07:18:32;15.90;99.90
45983;DHT22;31711;47.158;7.346;2022-09-16T07:21:13;16.00;99.90
45983;DHT22;31711;47.158;7.346;2022-09-16T07:23:40;16.30;99.90
45983;DHT22;31711;47.158;7.346;2022-09-16T07:26:14;16.50;99.90
45983;DHT22;31711;47.158;7.346;2022-09-16T07:28:42;16.60;99.90
45983;DHT22;31711;47.158;7.346;2022-09-16T07:31:15;16.70;99.90
45983;DHT22;31711;47.158;7.346;2022-09-16T07:33:43;16.70;99.90
45983;DHT22;31711;47.158;7.346;2022-09-16T07:36:12;16.80;99.90
45983;DHT22;31711;47.158;7.346;2022-09-16T07:38:38;16.90;99.90
45983;DHT22;31711;47.158;7.346;2022-09-16T07:41:13;17.00;99.90
45983;DHT22;31711;47.158;7.346;2022-09-16T07:43:40;16.80;99.90
45983;DHT22;31711;47.158;7.346;2022-09-16T07:46:08;16.70;99.90
45983;DHT22;31711;47.158;7.346;2022-09-16T07:48:35;16.60;99.90
45983;DHT22;31711;47.158;7.346;2022-09-16T07:51:07;16.60;99.90
45983;DHT22;31711;47.158;7.346;2022-09-16T07:53:34;16.60;99.90
45983;DHT22;31711;47.158;7.346;2022-09-16T07:56:05;16.80;99.90
45983;DHT22;31711;47.158;7.346;2022-09-16T07:58:31;16.90;99.90
45983;DHT22;31711;47.158;7.346;2022-09-16T08:00:58;17.00;99.90
45983;DHT22;31711;47.158;7.346;2022-09-16T08:03:24;17.10;99.90
45983;DHT22;31711;47.158;7.346;2022-09-16T08:05:50;17.20;99.90
45983;DHT22;31711;47.158;7.346;2022-09-16T08:08:16;17.20;99.90
45983;DHT22;31711;47.158;7.346;2022-09-16T08:10:43;17.10;99.90
45983;DHT22;31711;47.158;7.346;2022-09-16T08:13:09;17.00;99.90
45983;DHT22;31711;47.158;7.346;2022-09-16T08:15:35;17.20;99.90
45983;DHT22;31711;47.158;7.346;2022-09-16T08:18:01;17.40;99.90
45983;DHT22;31711;47.158;7.346;2022-09-16T08:20:27;17.30;99.90
45983;DHT22;31711;47.158;7.346;2022-09-16T08:22:53;17.40;99.90
45983;DHT22;31711;47.158;7.346;2022-09-16T08:25:19;17.30;99.90
45983;DHT22;31711;47.158;7.346;2022-09-16T08:27:45;17.20;99.90
45983;DHT22;31711;47.158;7.346;2022-09-16T08:30:11;17.20;99.90
45983;DHT22;31711;47.158;7.346;2022-09-16T08:32:37;17.10;99.90
45983;DHT22;31711;47.158;7.346;2022-09-16T08:35:03;16.90;99.90
45983;DHT22;31711;47.158;7.346;2022-09-16T08:37:29;16.70;99.90
45983;DHT22;31711;47.158;7.346;2022-09-16T08:39:55;16.50;99.90
45983;DHT22;31711;47.158;7.346;2022-09-16T08:42:32;16.20;99.90
45983;DHT22;31711;47.158;7.346;2022-09-16T08:50:39;15.50;99.90
45983;DHT22;31711;47.158;7.346;2022-09-16T08:53:15;15.50;99.90
45983;DHT22;31711;47.158;7.346;2022-09-16T08:55:44;15.50;99.90
45983;DHT22;31711;47.158;7.346;2022-09-16T08:58:32;15.60;99.90
45983;DHT22;31711;47.158;7.346;2022-09-16T09:01:03;15.60;99.90
45983;DHT22;31711;47.158;7.346;2022-09-16T09:03:43;15.80;99.90
45983;DHT22;31711;47.158;7.346;2022-09-16T09:12:12;16.10;99.90
45983;DHT22;31711;47.158;7.346;2022-09-16T09:20:30;16.40;99.90
45983;DHT22;31711;47.158;7.346;2022-09-16T09:26:10;16.50;99.90
45983;DHT22;31711;47.158;7.346;2022-09-16T09:28:50;16.70;99.90
45983;DHT22;31711;47.158;7.346;2022-09-16T09:39:32;16.20;99.90
45983;DHT22;31711;47.158;7.346;2022-09-16T09:42:09;16.30;99.90
45983;DHT22;31711;47.158;7.346;2022-09-16T09:45:11;16.40;99.90
45983;DHT22;31711;47.158;7.346;2022-09-16T09:47:44;16.40;99.90
45983;DHT22;31711;47.158;7.346;2022-09-16T09:50:22;16.40;99.90
45983;DHT22;31711;47.158;7.346;2022-09-16T09:55:40;16.60;99.90
45983;DHT22;31711;47.158;7.346;2022-09-16T10:00:38;16.60;99.90
45983;DHT22;31711;47.158;7.346;2022-09-16T10:03:09;16.60;99.90
45983;DHT22;31711;47.158;7.346;2022-09-16T10:05:36;16.60;99.90
45983;DHT22;31711;47.158;7.346;2022-09-16T10:08:08;16.90;99.90
45983;DHT22;31711;47.158;7.346;2022-09-16T10:10:44;17.20;99.90
45983;DHT22;31711;47.158;7.346;2022-09-16T10:13:11;17.50;99.90
45983;DHT22;31711;47.158;7.346;2022-09-16T10:15:38;17.80;99.90
45983;DHT22;31711;47.158;7.346;2022-09-16T10:21:13;18.30;99.90
45983;DHT22;31711;47.158;7.346;2022-09-16T10:23:40;18.50;99.90
45983;DHT22;31711;47.158;7.346;2022-09-16T10:26:24;18.70;99.90
45983;DHT22;31711;47.158;7.346;2022-09-16T10:28:59;19.00;99.90
45983;DHT22;31711;47.158;7.346;2022-09-16T10:31:33;19.30;99.90
45983;DHT22;31711;47.158;7.346;2022-09-16T10:34:00;19.40;99.90
45983;DHT22;31711;47.158;7.346;2022-09-16T10:36:31;19.60;99.90
45983;DHT22;31711;47.158;7.346;2022-09-16T10:39:02;19.60;99.90
45983;DHT22;31711;47.158;7.346;2022-09-16T10:41:41;19.50;99.90
45983;DHT22;31711;47.158;7.346;2022-09-16T10:44:24;19.50;99.90
45983;DHT22;31711;47.158;7.346;2022-09-16T10:46:53;19.50;99.90
45983;DHT22;31711;47.158;7.346;2022-09-16T10:49:24;19.50;99.90
45983;DHT22;31711;47.158;7.346;2022-09-16T10:51:51;19.00;99.90
45983;DHT22;31711;47.158;7.346;2022-09-16T10:54:26;18.50;99.90
45983;DHT22;31711;47.158;7.346;2022-09-16T10:56:53;18.20;99.90
45983;DHT22;31711;47.158;7.346;2022-09-16T10:59:19;17.90;99.90
45983;DHT22;31711;47.158;7.346;2022-09-16T11:04:44;17.70;99.90
45983;DHT22;31711;47.158;7.346;2022-09-16T11:07:39;17.80;99.90
45983;DHT22;31711;47.158;7.346;2022-09-16T11:10:26;17.90;99.90
45983;DHT22;31711;47.158;7.346;2022-09-16T11:13:18;17.90;99.90
45983;DHT22;31711;47.158;7.346;2022-09-16T11:19:40;17.40;99.90
45983;DHT22;31711;47.158;7.346;2022-09-16T11:24:43;17.80;99.90
45983;DHT22;31711;47.158;7.346;2022-09-16T11:40:44;19.00;99.90
45983;DHT22;31711;47.158;7.346;2022-09-16T11:49:38;19.20;99.90
45983;DHT22;31711;47.158;7.346;2022-09-16T11:57:56;19.00;99.90
45983;DHT22;31711;47.158;7.346;2022-09-16T12:00:23;18.70;99.90
45983;DHT22;31711;47.158;7.346;2022-09-16T12:05:50;19.10;99.90
45983;DHT22;31711;47.158;7.346;2022-09-16T12:10:59;19.10;99.90
45983;DHT22;31711;47.158;7.346;2022-09-16T12:13:39;19.20;99.90
45983;DHT22;31711;47.158;7.346;2022-09-16T12:16:14;19.20;99.90
45983;DHT22;31711;47.158;7.346;2022-09-16T12:18:46;19.10;99.90
45983;DHT22;31711;47.158;7.346;2022-09-16T12:23:49;19.10;99.90
45983;DHT22;31711;47.158;7.346;2022-09-16T12:26:20;19.30;99.90
45983;DHT22;31711;47.158;7.346;2022-09-16T12:34:14;19.00;99.90
45983;DHT22;31711;47.158;7.346;2022-09-16T12:36:44;19.00;99.90
45983;DHT22;31711;47.158;7.346;2022-09-16T12:39:12;18.80;99.90
45983;DHT22;31711;47.158;7.346;2022-09-16T12:44:47;18.90;99.90
45983;DHT22;31711;47.158;7.346;2022-09-16T13:03:31;18.60;99.90
45983;DHT22;31711;47.158;7.346;2022-09-16T13:06:02;18.20;99.90
45983;DHT22;31711;47.158;7.346;2022-09-16T13:08:30;18.00;99.90
45983;DHT22;31711;47.158;7.346;2022-09-16T13:11:05;17.80;99.90
45983;DHT22;31711;47.158;7.346;2022-09-16T13:13:38;17.90;99.90
45983;DHT22;31711;47.158;7.346;2022-09-16T13:16:06;18.00;99.90
45983;DHT22;31711;47.158;7.346;2022-09-16T13:18:48;17.90;99.90
45983;DHT22;31711;47.158;7.346;2022-09-16T13:21:25;17.90;99.90
45983;DHT22;31711;47.158;7.346;2022-09-16T13:24:56;18.10;99.90
45983;DHT22;31711;47.158;7.346;2022-09-16T13:27:01;18.10;99.90
45983;DHT22;31711;47.158;7.346;2022-09-16T13:29:41;17.90;99.90
45983;DHT22;31711;47.158;7.346;2022-09-16T13:32:27;18.10;99.90
45983;DHT22;31711;47.158;7.346;2022-09-16T13:37:58;17.90;99.90
45983;DHT22;31711;47.158;7.346;2022-09-16T13:40:27;17.70;99.90
45983;DHT22;31711;47.158;7.346;2022-09-16T13:43:12;17.90;99.90
45983;DHT22;31711;47.158;7.346;2022-09-16T13:45:43;18.10;99.90
45983;DHT22;31711;47.158;7.346;2022-09-16T13:48:15;18.10;99.90
45983;DHT22;31711;47.158;7.346;2022-09-16T13:50:52;18.40;99.90
45983;DHT22;31711;47.158;7.346;2022-09-16T13:53:36;18.50;99.90
45983;DHT22;31711;47.158;7.346;2022-09-16T14:15:15;18.00;99.90
45983;DHT22;31711;47.158;7.346;2022-09-16T14:17:45;17.90;99.90
45983;DHT22;31711;47.158;7.346;2022-09-16T14:20:19;18.00;99.90
45983;DHT22;31711;47.158;7.346;2022-09-16T14:22:45;18.30;99.90
45983;DHT22;31711;47.158;7.346;2022-09-16T14:25:37;18.20;99.90
45983;DHT22;31711;47.158;7.346;2022-09-16T14:33:24;18.10;99.90
45983;DHT22;31711;47.158;7.346;2022-09-16T14:35:52;18.40;99.90
45983;DHT22;31711;47.158;7.346;2022-09-16T14:38:29;18.50;99.90
45983;DHT22;31711;47.158;7.346;2022-09-16T14:40:56;18.40;99.90
45983;DHT22;31711;47.158;7.346;2022-09-16T14:43:22;18.50;99.90
45983;DHT22;31711;47.158;7.346;2022-09-16T14:45:51;18.40;99.90
45983;DHT22;31711;47.158;7.346;2022-09-16T14:48:20;18.20;99.90
45983;DHT22;31711;47.158;7.346;2022-09-16T14:50:48;18.60;99.90
45983;DHT22;31711;47.158;7.346;2022-09-16T14:55:51;18.60;99.90
45983;DHT22;31711;47.158;7.346;2022-09-16T14:58:18;18.80;99.90
45983;DHT22;31711;47.158;7.346;2022-09-16T15:00:47;18.90;99.90
45983;DHT22;31711;47.158;7.346;2022-09-16T15:03:19;18.70;99.90
45983;DHT22;31711;47.158;7.346;2022-09-16T15:05:47;18.90;99.90
45983;DHT22;31711;47.158;7.346;2022-09-16T15:10:52;19.10;99.90
45983;DHT22;31711;47.158;7.346;2022-09-16T15:13:20;18.80;99.90
45983;DHT22;31711;47.158;7.346;2022-09-16T15:16:03;18.80;99.90
45983;DHT22;31711;47.158;7.346;2022-09-16T15:18:38;18.90;99.90
45983;DHT22;31711;47.158;7.346;2022-09-16T15:23:36;18.40;99.90
45983;DHT22;31711;47.158;7.346;2022-09-16T15:26:19;18.50;99.90
45983;DHT22;31711;47.158;7.346;2022-09-16T15:29:01;18.10;99.90
45983;DHT22;31711;47.158;7.346;2022-09-16T15:31:32;17.90;99.90
45983;DHT22;31711;47.158;7.346;2022-09-16T15:34:01;17.80;99.90
45983;DHT22;31711;47.158;7.346;2022-09-16T15:36:39;17.70;99.90
45983;DHT22;31711;47.158;7.346;2022-09-16T15:39:24;17.70;99.90
45983;DHT22;31711;47.158;7.346;2022-09-16T15:42:04;17.60;99.90
45983;DHT22;31711;47.158;7.346;2022-09-16T15:44:33;17.60;99.90
45983;DHT22;31711;47.158;7.346;2022-09-16T15:47:00;17.70;99.90
45983;DHT22;31711;47.158;7.346;2022-09-16T15:49:28;17.60;99.90
45983;DHT22;31711;47.158;7.346;2022-09-16T15:51:54;17.50;99.90
45983;DHT22;31711;47.158;7.346;2022-09-16T15:54:23;17.60;99.90
45983;DHT22;31711;47.158;7.346;2022-09-16T16:02:32;16.90;99.90
45983;DHT22;31711;47.158;7.346;2022-09-16T16:05:13;16.50;99.90
45983;DHT22;31711;47.158;7.346;2022-09-16T16:07:48;16.30;99.90
45983;DHT22;31711;47.158;7.346;2022-09-16T16:10:18;16.20;99.90
45983;DHT22;31711;47.158;7.346;2022-09-16T16:12:45;16.20;99.90
45983;DHT22;31711;47.158;7.346;2022-09-16T16:15:55;16.30;99.90
45983;DHT22;31711;47.158;7.346;2022-09-16T16:18:05;16.30;99.90
45983;DHT22;31711;47.158;7.346;2022-09-16T16:20:32;16.20;99.90
45983;DHT22;31711;47.158;7.346;2022-09-16T16:22:59;16.20;99.90
45983;DHT22;31711;47.158;7.346;2022-09-16T16:25:26;16.20;99.90
45983;DHT22;31711;47.158;7.346;2022-09-16T16:27:52;16.30;99.90
45983;DHT22;31711;47.158;7.346;2022-09-16T16:30:18;16.30;99.90
45983;DHT22;31711;47.158;7.346;2022-09-16T16:32:44;16.40;99.90
45983;DHT22;31711;47.158;7.346;2022-09-16T16:35:11;16.40;99.90
45983;DHT22;31711;47.158;7.346;2022-09-16T16:37:37;16.30;99.90
45983;DHT22;31711;47.158;7.346;2022-09-16T16:40:04;16.30;99.90
45983;DHT22;31711;47.158;7.346;2022-09-16T16:42:30;16.30;99.90
45983;DHT22;31711;47.158;7.346;2022-09-16T16:44:56;16.10;99.90
45983;DHT22;31711;47.158;7.346;2022-09-16T16:47:22;15.90;99.90
45983;DHT22;31711;47.158;7.346;2022-09-16T16:49:49;16.00;99.90
45983;DHT22;31711;47.158;7.346;2022-09-16T16:52:16;16.10;99.90
45983;DHT22;31711;47.158;7.346;2022-09-16T16:54:42;16.10;99.90
45983;DHT22;31711;47.158;7.346;2022-09-16T16:57:09;16.10;99.90
45983;DHT22;31711;47.158;7.346;2022-09-16T16:59:35;16.10;99.90
45983;DHT22;31711;47.158;7.346;2022-09-16T17:02:01;15.90;99.90
45983;DHT22;31711;47.158;7.346;2022-09-16T17:04:29;15.70;99.90
45983;DHT22;31711;47.158;7.346;2022-09-16T17:06:55;15.40;99.90
45983;DHT22;31711;47.158;7.346;2022-09-16T17:09:22;15.30;99.90
45983;DHT22;31711;47.158;7.346;2022-09-16T17:11:51;15.20;99.90
45983;DHT22;31711;47.158;7.346;2022-09-16T17:14:17;15.10;99.90
45983;DHT22;31711;47.158;7.346;2022-09-16T17:16:43;15.00;99.90
45983;DHT22;31711;47.158;7.346;2022-09-16T17:19:12;15.00;99.90
45983;DHT22;31711;47.158;7.346;2022-09-16T17:21:38;14.90;99.90
45983;DHT22;31711;47.158;7.346;2022-09-16T17:24:06;14.80;99.90
45983;DHT22;31711;47.158;7.346;2022-09-16T17:26:32;14.80;99.90
45983;DHT22;31711;47.158;7.346;2022-09-16T17:28:58;14.70;99.90
45983;DHT22;31711;47.158;7.346;2022-09-16T17:31:29;14.70;99.90
45983;DHT22;31711;47.158;7.346;2022-09-16T17:33:57;14.70;99.90
45983;DHT22;31711;47.158;7.346;2022-09-16T17:36:24;14.70;99.90
45983;DHT22;31711;47.158;7.346;2022-09-16T17:38:58;14.70;99.90
45983;DHT22;31711;47.158;7.346;2022-09-16T17:41:25;14.70;99.90
45983;DHT22;31711;47.158;7.346;2022-09-16T17:43:58;14.60;99.90
45983;DHT22;31711;47.158;7.346;2022-09-16T17:46:25;14.60;99.90
45983;DHT22;31711;47.158;7.346;2022-09-16T17:48:59;14.60;99.90
45983;DHT22;31711;47.158;7.346;2022-09-16T17:51:26;14.50;99.90
45983;DHT22;31711;47.158;7.346;2022-09-16T17:53:52;14.50;99.90
45983;DHT22;31711;47.158;7.346;2022-09-16T17:56:18;14.40;99.90
45983;DHT22;31711;47.158;7.346;2022-09-16T17:58:45;14.50;99.90
45983;DHT22;31711;47.158;7.346;2022-09-16T18:01:14;14.50;99.90
45983;DHT22;31711;47.158;7.346;2022-09-16T18:03:59;14.50;99.90
45983;DHT22;31711;47.158;7.346;2022-09-16T18:06:28;14.40;99.90
45983;DHT22;31711;47.158;7.346;2022-09-16T18:08:58;14.40;99.90
45983;DHT22;31711;47.158;7.346;2022-09-16T18:16:35;14.30;99.90
45983;DHT22;31711;47.158;7.346;2022-09-16T18:19:02;14.30;99.90
45983;DHT22;31711;47.158;7.346;2022-09-16T18:21:30;14.30;99.90
45983;DHT22;31711;47.158;7.346;2022-09-16T18:24:00;14.20;99.90
45983;DHT22;31711;47.158;7.346;2022-09-16T18:26:27;14.20;99.90
45983;DHT22;31711;47.158;7.346;2022-09-16T18:28:53;14.20;99.90
45983;DHT22;31711;47.158;7.346;2022-09-16T18:31:22;14.20;99.90
45983;DHT22;31711;47.158;7.346;2022-09-16T18:33:52;14.20;99.90
45983;DHT22;31711;47.158;7.346;2022-09-16T18:36:19;14.10;99.90
45983;DHT22;31711;47.158;7.346;2022-09-16T18:38:50;14.10;99.90
45983;DHT22;31711;47.158;7.346;2022-09-16T18:41:22;14.00;99.90
45983;DHT22;31711;47.158;7.346;2022-09-16T18:43:54;13.90;99.90
45983;DHT22;31711;47.158;7.346;2022-09-16T18:46:31;13.90;99.90
45983;DHT22;31711;47.158;7.346;2022-09-16T18:48:58;13.90;99.90
45983;DHT22;31711;47.158;7.346;2022-09-16T18:51:31;13.90;99.90
45983;DHT22;31711;47.158;7.346;2022-09-16T18:54:00;13.90;99.90
45983;DHT22;31711;47.158;7.346;2022-09-16T18:56:29;13.90;99.90
45983;DHT22;31711;47.158;7.346;2022-09-16T18:59:02;13.90;99.90
45983;DHT22;31711;47.158;7.346;2022-09-16T19:01:33;13.90;99.90
45983;DHT22;31711;47.158;7.346;2022-09-16T19:04:02;13.80;99.90
45983;DHT22;31711;47.158;7.346;2022-09-16T19:06:31;13.70;99.90
45983;DHT22;31711;47.158;7.346;2022-09-16T19:08:59;13.70;99.90
45983;DHT22;31711;47.158;7.346;2022-09-16T19:11:25;13.70;99.90
45983;DHT22;31711;47.158;7.346;2022-09-16T19:13:51;13.80;99.90
45983;DHT22;31711;47.158;7.346;2022-09-16T19:16:17;13.70;99.90
45983;DHT22;31711;47.158;7.346;2022-09-16T19:18:44;13.70;99.90
45983;DHT22;31711;47.158;7.346;2022-09-16T19:21:14;13.80;99.90
45983;DHT22;31711;47.158;7.346;2022-09-16T19:23:45;13.70;99.90
45983;DHT22;31711;47.158;7.346;2022-09-16T19:26:13;13.70;99.90
45983;DHT22;31711;47.158;7.346;2022-09-16T19:28:39;13.70;99.90
45983;DHT22;31711;47.158;7.346;2022-09-16T19:31:08;13.60;99.90
45983;DHT22;31711;47.158;7.346;2022-09-16T19:33:35;13.50;99.90